createdAt,value
2019-05-03T00:00:28.380Z,7.3
2019-05-03T00:01:28.426Z,7.3
2019-05-03T00:02:28.481Z,7.2
2019-05-03T00:03:28.651Z,7.2
2019-05-03T00:04:28.553Z,7.2
2019-05-03T00:05:28.747Z,7.2
2019-05-03T00:06:28.674Z,7.2
2019-05-03T00:07:28.781Z,7.2
2019-05-03T00:08:28.804Z,7.2
2019-05-03T00:09:28.817Z,7.2
2019-05-03T00:10:28.864Z,7.2
2019-05-03T00:11:28.915Z,7.2
2019-05-03T00:12:28.953Z,7.1
2019-05-03T00:13:29.024Z,7.1
2019-05-03T00:14:29.038Z,7.1
2019-05-03T00:15:29.102Z,7.1
2019-05-03T00:16:29.180Z,7.1
2019-05-03T00:17:29.247Z,7.1
2019-05-03T00:18:29.265Z,7.1
2019-05-03T00:19:29.331Z,7.1
2019-05-03T00:20:29.403Z,7.1
2019-05-03T00:21:29.438Z,7.1
2019-05-03T00:22:29.501Z,7.1
2019-05-03T00:23:29.569Z,7.1
2019-05-03T00:24:29.601Z,7.1
2019-05-03T00:25:29.634Z,7.1
2019-05-03T00:26:31.700Z,7.1
2019-05-03T00:27:32.129Z,7.1
2019-05-03T00:28:29.818Z,7.1
2019-05-03T00:29:29.852Z,7.1
2019-05-03T00:30:31.824Z,7
2019-05-03T00:31:31.772Z,7
2019-05-03T00:32:31.782Z,7
2019-05-03T00:33:31.743Z,7
2019-05-03T00:34:30.120Z,7
2019-05-03T00:35:31.921Z,7
2019-05-03T00:36:30.216Z,7
2019-05-03T00:37:30.277Z,7
2019-05-03T00:38:32.389Z,7
2019-05-03T00:39:32.328Z,7
2019-05-03T00:40:32.237Z,6.9
2019-05-03T00:41:31.982Z,6.9
2019-05-03T00:42:31.734Z,6.9
2019-05-03T00:43:31.744Z,6.9
2019-05-03T00:44:31.687Z,6.9
2019-05-03T00:45:31.582Z,6.9
2019-05-03T00:46:32.608Z,6.9
2019-05-03T00:47:32.614Z,6.9
2019-05-03T00:48:32.566Z,6.9
2019-05-03T00:49:32.043Z,6.9
2019-05-03T00:50:32.024Z,6.9
2019-05-03T00:51:31.774Z,6.9
2019-05-03T00:52:31.793Z,6.9
2019-05-03T00:53:31.710Z,6.9
2019-05-03T00:54:31.702Z,6.9
2019-05-03T00:55:32.748Z,6.8
2019-05-03T00:56:32.117Z,6.8
2019-05-03T00:57:32.235Z,6.8
2019-05-03T00:58:31.772Z,6.8
2019-05-03T00:59:32.612Z,6.8
2019-05-03T01:00:32.279Z,6.8
2019-05-03T01:01:32.031Z,6.8
2019-05-03T01:02:31.920Z,6.8
2019-05-03T01:03:32.520Z,6.8
2019-05-03T01:04:31.906Z,6.8
2019-05-03T01:05:33.082Z,6.8
2019-05-03T01:06:36.191Z,6.8
2019-05-03T01:07:32.075Z,6.8
2019-05-03T01:08:32.624Z,6.8
2019-05-03T01:09:32.026Z,6.8
2019-05-03T01:10:33.042Z,6.8
2019-05-03T01:11:32.472Z,6.8
2019-05-03T01:12:32.563Z,6.8
2019-05-03T01:13:32.290Z,6.8
2019-05-03T01:14:32.371Z,6.8
2019-05-03T01:15:32.355Z,6.8
2019-05-03T01:16:32.378Z,6.8
2019-05-03T01:17:32.472Z,6.8
2019-05-03T01:18:32.582Z,6.8
2019-05-03T01:19:32.523Z,6.7
2019-05-03T01:20:32.617Z,6.7
2019-05-03T01:21:32.668Z,6.7
2019-05-03T01:22:32.714Z,6.7
2019-05-03T01:23:32.792Z,6.7
2019-05-03T01:24:32.816Z,6.7
2019-05-03T01:25:35.400Z,6.7
2019-05-03T01:26:32.916Z,6.7
2019-05-03T01:27:33.005Z,6.7
2019-05-03T01:28:33.035Z,6.7
2019-05-03T01:29:33.075Z,6.7
2019-05-03T01:30:33.147Z,6.7
2019-05-03T01:31:33.296Z,6.7
2019-05-03T01:32:33.255Z,6.7
2019-05-03T01:33:33.294Z,6.7
2019-05-03T01:34:33.346Z,6.7
2019-05-03T01:35:33.353Z,6.7
2019-05-03T01:36:33.401Z,6.7
2019-05-03T01:37:33.451Z,6.7
2019-05-03T01:38:33.510Z,6.7
2019-05-03T01:39:33.536Z,6.7
2019-05-03T01:40:33.586Z,6.6
2019-05-03T01:41:33.687Z,6.6
2019-05-03T01:42:33.736Z,6.6
2019-05-03T01:43:33.769Z,6.6
2019-05-03T01:44:33.877Z,6.6
2019-05-03T01:45:33.940Z,6.6
2019-05-03T01:46:34.004Z,6.6
2019-05-03T01:47:34.061Z,6.6
2019-05-03T01:48:34.097Z,6.6
2019-05-03T01:49:34.169Z,6.6
2019-05-03T01:50:34.238Z,6.6
2019-05-03T01:51:34.337Z,6.6
2019-05-03T01:52:34.334Z,6.6
2019-05-03T01:53:34.386Z,6.6
2019-05-03T01:54:34.434Z,6.6
2019-05-03T01:55:43.596Z,6.6
2019-05-03T01:56:34.646Z,6.6
2019-05-03T01:57:34.603Z,6.6
2019-05-03T01:58:34.673Z,6.6
2019-05-03T01:59:34.763Z,6.6
2019-05-03T02:00:34.777Z,6.6
2019-05-03T02:01:34.887Z,6.6
2019-05-03T02:02:34.965Z,6.6
2019-05-03T02:03:35.026Z,6.6
2019-05-03T02:04:35.080Z,6.5
2019-05-03T02:05:35.141Z,6.5
2019-05-03T02:06:35.177Z,6.5
2019-05-03T02:07:35.237Z,6.5
2019-05-03T02:08:35.290Z,6.5
2019-05-03T02:09:35.336Z,6.5
2019-05-03T02:10:35.371Z,6.5
2019-05-03T02:11:35.447Z,6.5
2019-05-03T02:12:35.456Z,6.5
2019-05-03T02:13:35.554Z,6.5
2019-05-03T02:14:35.581Z,6.5
2019-05-03T02:15:35.655Z,6.5
2019-05-03T02:16:35.688Z,6.5
2019-05-03T02:17:35.726Z,6.5
2019-05-03T02:18:35.766Z,6.5
2019-05-03T02:19:35.836Z,6.5
2019-05-03T02:20:35.866Z,6.5
2019-05-03T02:21:35.915Z,6.5
2019-05-03T02:22:36.000Z,6.5
2019-05-03T02:23:36.056Z,6.4
2019-05-03T02:24:36.116Z,6.4
2019-05-03T02:25:36.166Z,6.4
2019-05-03T02:26:36.230Z,6.4
2019-05-03T02:27:36.285Z,6.4
2019-05-03T02:28:36.364Z,6.4
2019-05-03T02:29:36.395Z,6.4
2019-05-03T02:30:36.554Z,6.4
2019-05-03T02:31:36.535Z,6.4
2019-05-03T02:32:36.582Z,6.4
2019-05-03T02:33:36.646Z,6.4
2019-05-03T02:34:36.705Z,6.4
2019-05-03T02:35:36.723Z,6.4
2019-05-03T02:36:36.765Z,6.4
2019-05-03T02:37:36.830Z,6.4
2019-05-03T02:38:36.895Z,6.3
2019-05-03T02:39:36.958Z,6.3
2019-05-03T02:40:37.022Z,6.3
2019-05-03T02:41:37.057Z,6.3
2019-05-03T02:42:37.205Z,6.3
2019-05-03T02:43:37.235Z,6.3
2019-05-03T02:44:37.263Z,6.3
2019-05-03T02:45:37.282Z,6.3
2019-05-03T02:46:37.353Z,6.3
2019-05-03T02:47:37.444Z,6.3
2019-05-03T02:48:37.462Z,6.3
2019-05-03T02:49:37.514Z,6.2
2019-05-03T02:50:37.559Z,6.2
2019-05-03T02:51:37.623Z,6.2
2019-05-03T02:52:37.962Z,6.2
2019-05-03T02:53:37.713Z,6.2
2019-05-03T02:54:37.759Z,6.2
2019-05-03T02:55:37.854Z,6.2
2019-05-03T02:56:37.895Z,6.2
2019-05-03T02:57:37.929Z,6.2
2019-05-03T02:58:37.992Z,6.1
2019-05-03T02:59:38.066Z,6.1
2019-05-03T03:00:38.122Z,6.1
2019-05-03T03:01:38.151Z,6.1
2019-05-03T03:02:38.344Z,6.1
2019-05-03T03:03:38.262Z,6.1
2019-05-03T03:04:38.285Z,6.1
2019-05-03T03:05:38.353Z,6.1
2019-05-03T03:06:38.381Z,6.1
2019-05-03T03:07:38.481Z,6.1
2019-05-03T03:08:38.557Z,6.1
2019-05-03T03:09:38.616Z,6.1
2019-05-03T03:10:38.654Z,6.1
2019-05-03T03:11:38.711Z,6.1
2019-05-03T03:12:38.774Z,6.1
2019-05-03T03:13:38.811Z,6.1
2019-05-03T03:14:38.850Z,6.1
2019-05-03T03:15:38.917Z,6.1
2019-05-03T03:16:39.021Z,6.1
2019-05-03T03:17:39.423Z,6.1
2019-05-03T03:18:39.287Z,6.1
2019-05-03T03:19:39.367Z,6.1
2019-05-03T03:20:39.490Z,6.1
2019-05-03T03:21:39.291Z,6.1
2019-05-03T03:22:39.369Z,6.1
2019-05-03T03:23:39.404Z,6.1
2019-05-03T03:24:39.485Z,6.1
2019-05-03T03:25:39.554Z,6.1
2019-05-03T03:26:43.047Z,6.1
2019-05-03T03:27:39.645Z,6.1
2019-05-03T03:28:39.737Z,6.1
2019-05-03T03:29:39.740Z,6.1
2019-05-03T03:30:39.775Z,6.1
2019-05-03T03:31:39.834Z,6.1
2019-05-03T03:32:39.904Z,6.1
2019-05-03T03:33:40.563Z,6.1
2019-05-03T03:34:40.014Z,6.1
2019-05-03T03:35:40.107Z,6.1
2019-05-03T03:36:54.255Z,6.1
2019-05-03T03:37:40.554Z,6.1
2019-05-03T03:38:40.225Z,6.1
2019-05-03T03:39:40.860Z,6.1
2019-05-03T03:40:41.687Z,6.1
2019-05-03T03:41:40.362Z,6.1
2019-05-03T03:42:40.441Z,6.1
2019-05-03T03:43:42.372Z,6.1
2019-05-03T03:44:42.067Z,6.1
2019-05-03T03:45:41.312Z,6.1
2019-05-03T03:46:41.321Z,6.1
2019-05-03T03:47:40.685Z,6.1
2019-05-03T03:48:41.535Z,6.1
2019-05-03T03:49:41.885Z,6.1
2019-05-03T03:50:41.735Z,6.1
2019-05-03T03:51:40.905Z,6.1
2019-05-03T03:52:41.309Z,6.1
2019-05-03T03:53:42.266Z,6.1
2019-05-03T03:54:42.341Z,6.1
2019-05-03T03:55:41.089Z,6.1
2019-05-03T03:56:55.761Z,6.1
2019-05-03T03:57:41.229Z,6.1
2019-05-03T03:58:41.237Z,6.1
2019-05-03T03:59:41.310Z,6.1
2019-05-03T04:00:41.470Z,6.1
2019-05-03T04:01:41.386Z,6.1
2019-05-03T04:02:41.470Z,6.1
2019-05-03T04:03:41.561Z,6.1
2019-05-03T04:04:41.619Z,6.1
2019-05-03T04:05:41.747Z,6.1
2019-05-03T04:06:41.750Z,6.1
2019-05-03T04:07:41.810Z,6.1
2019-05-03T04:08:41.864Z,6.1
2019-05-03T04:09:42.013Z,6.1
2019-05-03T04:10:41.951Z,6.1
2019-05-03T04:11:42.094Z,6.1
2019-05-03T04:12:42.175Z,6.1
2019-05-03T04:13:42.096Z,6.1
2019-05-03T04:14:42.181Z,6.2
2019-05-03T04:15:42.231Z,6.1
2019-05-03T04:16:42.265Z,6.1
2019-05-03T04:17:42.318Z,6.2
2019-05-03T04:18:42.405Z,6.2
2019-05-03T04:19:45.237Z,6.2
2019-05-03T04:20:45.652Z,6.2
2019-05-03T04:21:45.131Z,6.2
2019-05-03T04:22:45.119Z,6.2
2019-05-03T04:23:42.631Z,6.2
2019-05-03T04:24:42.691Z,6.2
2019-05-03T04:25:45.009Z,6.2
2019-05-03T04:26:45.167Z,6.2
2019-05-03T04:27:45.315Z,6.2
2019-05-03T04:28:45.296Z,6.2
2019-05-03T04:29:45.341Z,6.2
2019-05-03T04:30:45.735Z,6.2
2019-05-03T04:31:45.582Z,6.2
2019-05-03T04:32:45.442Z,6.2
2019-05-03T04:33:45.016Z,6.2
2019-05-03T04:34:45.279Z,6.2
2019-05-03T04:35:46.298Z,6.3
2019-05-03T04:36:45.970Z,6.3
2019-05-03T04:37:45.264Z,6.3
2019-05-03T04:38:45.300Z,6.3
2019-05-03T04:39:45.596Z,6.3
2019-05-03T04:40:45.312Z,6.3
2019-05-03T04:41:45.295Z,6.3
2019-05-03T04:42:46.323Z,6.3
2019-05-03T04:43:45.828Z,6.3
2019-05-03T04:44:45.556Z,6.3
2019-05-03T04:45:45.588Z,6.3
2019-05-03T04:46:46.245Z,6.3
2019-05-03T04:47:46.188Z,6.3
2019-05-03T04:48:44.876Z,6.3
2019-05-03T04:49:46.185Z,6.3
2019-05-03T04:50:45.632Z,6.3
2019-05-03T04:51:46.434Z,6.3
2019-05-03T04:52:46.216Z,6.4
2019-05-03T04:53:45.428Z,6.4
2019-05-03T04:54:45.100Z,6.4
2019-05-03T04:55:46.792Z,6.4
2019-05-03T04:56:46.372Z,6.4
2019-05-03T04:57:49.092Z,6.4
2019-05-03T04:58:45.825Z,6.4
2019-05-03T04:59:45.126Z,6.4
2019-05-03T05:00:46.437Z,6.4
2019-05-03T05:01:46.044Z,6.4
2019-05-03T05:02:45.715Z,6.4
2019-05-03T05:03:45.652Z,6.4
2019-05-03T05:04:46.239Z,6.4
2019-05-03T05:05:45.423Z,6.4
2019-05-03T05:06:45.177Z,6.4
2019-05-03T05:07:45.717Z,6.4
2019-05-03T05:08:46.193Z,6.4
2019-05-03T05:09:45.845Z,6.4
2019-05-03T05:10:45.705Z,6.4
2019-05-03T05:11:45.939Z,6.4
2019-05-03T05:12:45.796Z,6.4
2019-05-03T05:13:45.787Z,6.4
2019-05-03T05:14:45.944Z,6.4
2019-05-03T05:15:46.177Z,6.4
2019-05-03T05:16:46.480Z,6.5
2019-05-03T05:17:46.140Z,6.5
2019-05-03T05:18:45.844Z,6.5
2019-05-03T05:19:45.697Z,6.5
2019-05-03T05:20:45.782Z,6.5
2019-05-03T05:21:45.841Z,6.5
2019-05-03T05:22:45.883Z,6.5
2019-05-03T05:23:45.920Z,6.5
2019-05-03T05:24:45.986Z,6.5
2019-05-03T05:25:46.091Z,6.6
2019-05-03T05:26:46.091Z,6.6
2019-05-03T05:27:49.311Z,6.6
2019-05-03T05:28:46.236Z,6.6
2019-05-03T05:29:46.295Z,6.6
2019-05-03T05:30:46.319Z,6.6
2019-05-03T05:31:46.374Z,6.6
2019-05-03T05:32:46.445Z,6.6
2019-05-03T05:33:46.487Z,6.6
2019-05-03T05:34:46.545Z,6.6
2019-05-03T05:35:46.583Z,6.6
2019-05-03T05:36:46.612Z,6.6
2019-05-03T05:37:46.704Z,6.6
2019-05-03T05:38:46.724Z,6.6
2019-05-03T05:39:46.813Z,6.6
2019-05-03T05:40:46.862Z,6.6
2019-05-03T05:41:46.942Z,6.6
2019-05-03T05:42:46.976Z,6.6
2019-05-03T05:43:47.045Z,6.6
2019-05-03T05:44:47.095Z,6.7
2019-05-03T05:45:47.155Z,6.7
2019-05-03T05:46:47.186Z,6.7
2019-05-03T05:47:47.265Z,6.7
2019-05-03T05:48:47.309Z,6.7
2019-05-03T05:49:47.385Z,6.7
2019-05-03T05:50:47.514Z,6.7
2019-05-03T05:51:47.634Z,6.8
2019-05-03T05:52:47.630Z,6.8
2019-05-03T05:53:47.655Z,6.8
2019-05-03T05:54:47.766Z,6.8
2019-05-03T05:55:47.779Z,6.8
2019-05-03T05:56:47.930Z,6.8
2019-05-03T05:57:47.929Z,6.8
2019-05-03T05:58:48.064Z,6.8
2019-05-03T05:59:48.051Z,6.8
2019-05-03T06:00:48.054Z,6.8
2019-05-03T06:01:48.170Z,6.8
2019-05-03T06:02:48.166Z,6.8
2019-05-03T06:03:48.406Z,6.9
2019-05-03T06:04:48.298Z,6.9
2019-05-03T06:05:48.287Z,6.9
2019-05-03T06:06:48.340Z,6.9
2019-05-03T06:07:48.396Z,6.9
2019-05-03T06:08:48.466Z,6.9
2019-05-03T06:09:48.481Z,6.9
2019-05-03T06:10:48.542Z,7
2019-05-03T06:11:48.625Z,7
2019-05-03T06:12:48.706Z,7
2019-05-03T06:13:48.732Z,7.1
2019-05-03T06:14:48.776Z,7.1
2019-05-03T06:15:48.835Z,7.1
2019-05-03T06:16:48.883Z,7.1
2019-05-03T06:17:48.982Z,7.1
2019-05-03T06:18:48.959Z,7.2
2019-05-03T06:19:49.001Z,7.2
2019-05-03T06:20:49.084Z,7.3
2019-05-03T06:21:49.145Z,7.3
2019-05-03T06:22:49.240Z,7.3
2019-05-03T06:23:49.219Z,7.3
2019-05-03T06:24:49.293Z,7.4
2019-05-03T06:25:49.389Z,7.4
2019-05-03T06:26:49.435Z,7.4
2019-05-03T06:27:49.504Z,7.4
2019-05-03T06:28:49.576Z,7.3
2019-05-03T06:29:49.624Z,7.3
2019-05-03T06:30:49.640Z,7.3
2019-05-03T06:31:49.744Z,7.4
2019-05-03T06:32:49.809Z,7.4
2019-05-03T06:33:52.347Z,7.5
2019-05-03T06:34:49.918Z,7.5
2019-05-03T06:35:49.943Z,7.6
2019-05-03T06:36:51.438Z,7.6
2019-05-03T06:37:50.137Z,7.5
2019-05-03T06:38:50.118Z,7.5
2019-05-03T06:39:50.181Z,7.6
2019-05-03T06:40:50.563Z,7.6
2019-05-03T06:41:50.317Z,7.6
2019-05-03T06:42:54.071Z,7.6
2019-05-03T06:43:50.422Z,7.6
2019-05-03T06:44:50.461Z,7.7
2019-05-03T06:45:50.679Z,7.7
2019-05-03T06:46:50.563Z,7.7
2019-05-03T06:47:50.663Z,7.7
2019-05-03T06:48:50.638Z,7.8
2019-05-03T06:49:50.712Z,7.8
2019-05-03T06:50:50.742Z,7.8
2019-05-03T06:51:54.576Z,7.8
2019-05-03T06:52:50.979Z,7.8
2019-05-03T06:53:50.944Z,7.8
2019-05-03T06:55:10.427Z,7.8
2019-05-03T06:55:39.901Z,7.8
2019-05-03T06:55:59.080Z,7.9
2019-05-03T06:56:51.061Z,7.9
2019-05-03T06:57:51.128Z,8
2019-05-03T06:58:51.159Z,8
2019-05-03T06:59:51.223Z,8.1
2019-05-03T07:00:51.271Z,8.1
2019-05-03T07:01:51.303Z,8.2
2019-05-03T07:02:51.394Z,8.3
2019-05-03T07:03:51.436Z,8.3
2019-05-03T07:04:51.513Z,8.4
2019-05-03T07:05:51.570Z,8.5
2019-05-03T07:06:51.713Z,8.5
2019-05-03T07:07:51.685Z,8.6
2019-05-03T07:08:51.691Z,8.6
2019-05-03T07:09:51.877Z,8.7
2019-05-03T07:10:51.885Z,8.7
2019-05-03T07:11:51.822Z,8.8
2019-05-03T07:12:51.906Z,8.8
2019-05-03T07:13:51.944Z,8.9
2019-05-03T07:14:52.003Z,8.9
2019-05-03T07:15:52.052Z,9
2019-05-03T07:16:52.094Z,9
2019-05-03T07:17:52.224Z,9.1
2019-05-03T07:18:52.243Z,9.1
2019-05-03T07:19:52.299Z,9.1
2019-05-03T07:20:54.866Z,9.2
2019-05-03T07:21:54.501Z,9.2
2019-05-03T07:22:52.478Z,9.3
2019-05-03T07:23:52.526Z,9.3
2019-05-03T07:24:54.500Z,9.3
2019-05-03T07:25:52.598Z,9.4
2019-05-03T07:26:52.655Z,9.4
2019-05-03T07:27:52.684Z,9.4
2019-05-03T07:28:54.524Z,9.4
2019-05-03T07:29:52.799Z,9.5
2019-05-03T07:30:54.373Z,9.5
2019-05-03T07:31:54.677Z,9.6
2019-05-03T07:32:54.537Z,9.6
2019-05-03T07:33:54.983Z,9.6
2019-05-03T07:34:53.063Z,9.7
2019-05-03T07:35:54.748Z,9.7
2019-05-03T07:36:55.407Z,9.7
2019-05-03T07:37:55.093Z,9.7
2019-05-03T07:38:55.333Z,9.7
2019-05-03T07:39:55.392Z,9.8
2019-05-03T07:40:54.924Z,9.8
2019-05-03T07:41:55.053Z,9.8
2019-05-03T07:42:55.387Z,9.8
2019-05-03T07:43:54.987Z,9.8
2019-05-03T07:44:55.787Z,9.8
2019-05-03T07:45:55.209Z,9.9
2019-05-03T07:46:55.437Z,9.9
2019-05-03T07:47:55.764Z,9.9
2019-05-03T07:48:54.779Z,9.9
2019-05-03T07:49:54.658Z,9.9
2019-05-03T07:50:54.625Z,9.9
2019-05-03T07:51:55.283Z,10
2019-05-03T07:52:55.502Z,9.9
2019-05-03T07:53:55.519Z,10
2019-05-03T07:54:55.191Z,10
2019-05-03T07:55:54.793Z,10.1
2019-05-03T07:56:54.872Z,10
2019-05-03T07:57:55.447Z,10
2019-05-03T07:59:00.463Z,10.1
2019-05-03T07:59:55.639Z,10
2019-05-03T08:01:05.328Z,10.1
2019-05-03T08:01:54.729Z,10.1
2019-05-03T08:02:55.028Z,10.1
2019-05-03T08:03:55.197Z,10.1
2019-05-03T08:04:54.938Z,10.1
2019-05-03T08:05:55.300Z,10
2019-05-03T08:06:55.074Z,10.1
2019-05-03T08:07:55.403Z,10.1
2019-05-03T08:08:55.002Z,10.1
2019-05-03T08:09:55.487Z,10.1
2019-05-03T08:10:55.217Z,10.2
2019-05-03T08:11:55.200Z,10.2
2019-05-03T08:12:55.291Z,10.2
2019-05-03T08:13:55.309Z,10.2
2019-05-03T08:14:55.381Z,10.2
2019-05-03T08:15:55.831Z,10.2
2019-05-03T08:16:55.477Z,10.3
2019-05-03T08:17:55.574Z,10.3
2019-05-03T08:18:55.944Z,10.3
2019-05-03T08:19:55.668Z,10.3
2019-05-03T08:20:55.826Z,10.3
2019-05-03T08:21:56.610Z,10.4
2019-05-03T08:22:55.829Z,10.4
2019-05-03T08:23:55.883Z,10.3
2019-05-03T08:24:55.873Z,10.4
2019-05-03T08:25:55.946Z,10.4
2019-05-03T08:26:55.965Z,10.4
2019-05-03T08:27:55.997Z,10.4
2019-05-03T08:28:56.070Z,10.4
2019-05-03T08:29:56.125Z,10.5
2019-05-03T08:30:56.214Z,10.5
2019-05-03T08:31:56.247Z,10.5
2019-05-03T08:32:56.282Z,10.5
2019-05-03T08:33:56.310Z,10.6
2019-05-03T08:34:56.394Z,10.6
2019-05-03T08:35:56.432Z,10.5
2019-05-03T08:36:56.521Z,10.6
2019-05-03T08:37:56.533Z,10.6
2019-05-03T08:38:56.671Z,10.6
2019-05-03T08:39:56.614Z,10.7
2019-05-03T08:40:56.665Z,10.7
2019-05-03T08:41:56.707Z,10.8
2019-05-03T08:42:56.779Z,10.8
2019-05-03T08:43:56.803Z,10.8
2019-05-03T08:44:56.938Z,10.8
2019-05-03T08:45:56.925Z,10.8
2019-05-03T08:46:57.004Z,10.8
2019-05-03T08:47:57.039Z,10.9
2019-05-03T08:48:57.079Z,10.9
2019-05-03T08:49:57.153Z,11
2019-05-03T08:50:57.199Z,11
2019-05-03T08:51:57.248Z,11
2019-05-03T08:52:57.292Z,11
2019-05-03T08:54:57.402Z,11.1
2019-05-03T08:55:57.455Z,11.1
2019-05-03T08:56:57.527Z,11.2
2019-05-03T08:57:57.560Z,11.2
2019-05-03T08:58:57.606Z,11.2
2019-05-03T08:59:57.647Z,11.2
2019-05-03T09:00:57.723Z,11.2
2019-05-03T09:01:57.980Z,11.3
2019-05-03T09:02:57.832Z,11.3
2019-05-03T09:03:57.871Z,11.4
2019-05-03T09:04:57.917Z,11.4
2019-05-03T09:05:57.962Z,11.4
2019-05-03T09:06:58.026Z,11.4
2019-05-03T09:07:58.079Z,11.5
2019-05-03T09:08:58.086Z,11.5
2019-05-03T09:09:58.146Z,11.5
2019-05-03T09:10:58.203Z,11.5
2019-05-03T09:11:58.251Z,11.5
2019-05-03T09:12:58.493Z,11.5
2019-05-03T09:13:58.394Z,11.7
2019-05-03T09:14:59.218Z,11.7
2019-05-03T09:15:58.519Z,11.8
2019-05-03T09:16:59.557Z,11.8
2019-05-03T09:17:58.596Z,11.9
2019-05-03T09:18:58.660Z,11.9
2019-05-03T09:19:58.921Z,11.9
2019-05-03T09:20:59.454Z,12
2019-05-03T09:21:58.874Z,12
2019-05-03T09:22:59.123Z,12
2019-05-03T09:23:58.987Z,12
2019-05-03T09:24:59.283Z,12.1
2019-05-03T09:25:59.468Z,12.1
2019-05-03T09:27:00.563Z,12.2
2019-05-03T09:27:59.221Z,12.2
2019-05-03T09:28:59.607Z,12.3
2019-05-03T09:30:01.277Z,12.3
2019-05-03T09:31:00.078Z,12.4
2019-05-03T09:31:59.633Z,12.4
2019-05-03T09:33:00.558Z,12.5
2019-05-03T09:34:00.499Z,12.6
2019-05-03T09:35:00.913Z,12.7
2019-05-03T09:35:59.459Z,12.8
2019-05-03T09:37:00.160Z,12.8
2019-05-03T09:37:59.570Z,13
2019-05-03T09:38:59.695Z,13
2019-05-03T09:39:59.659Z,13.1
2019-05-03T09:40:59.697Z,13.3
2019-05-03T09:42:00.009Z,13.4
2019-05-03T09:42:59.823Z,13.4
2019-05-03T09:43:59.952Z,13.5
2019-05-03T09:44:59.923Z,13.6
2019-05-03T09:45:59.951Z,13.6
2019-05-03T09:47:00.096Z,13.7
2019-05-03T09:48:01.714Z,13.8
2019-05-03T09:49:10.829Z,13.9
2019-05-03T09:50:02.164Z,14
2019-05-03T09:51:00.566Z,14
2019-05-03T09:52:00.804Z,13.9
2019-05-03T09:53:00.516Z,14.1
2019-05-03T09:54:00.529Z,14.2
2019-05-03T09:55:00.466Z,14.4
2019-05-03T09:56:00.488Z,14.4
2019-05-03T09:57:00.535Z,14.5
2019-05-03T09:58:00.608Z,14.5
2019-05-03T09:59:00.659Z,14.5
2019-05-03T10:00:00.729Z,14.5
2019-05-03T10:01:00.801Z,14.6
2019-05-03T10:02:00.879Z,14.6
2019-05-03T10:03:00.883Z,14.3
2019-05-03T10:04:00.960Z,14.2
2019-05-03T10:05:01.015Z,13.9
2019-05-03T10:06:01.090Z,13.8
2019-05-03T10:07:01.130Z,13.7
2019-05-03T10:08:01.167Z,13.7
2019-05-03T10:09:01.231Z,13.6
2019-05-03T10:10:01.278Z,13.5
2019-05-03T10:11:01.341Z,13.7
2019-05-03T10:12:01.384Z,13.7
2019-05-03T10:13:01.466Z,13.6
2019-05-03T10:14:01.517Z,13.5
2019-05-03T10:15:01.593Z,13.5
2019-05-03T10:16:01.599Z,13.4
2019-05-03T10:17:01.658Z,13
2019-05-03T10:18:01.760Z,12.9
2019-05-03T10:19:01.768Z,12.7
2019-05-03T10:20:01.839Z,12.4
2019-05-03T10:21:03.038Z,12.2
2019-05-03T10:22:01.947Z,12.1
2019-05-03T10:23:02.027Z,11.9
2019-05-03T10:24:02.048Z,11.8
2019-05-03T10:25:02.089Z,11.7
2019-05-03T10:26:02.158Z,11.6
2019-05-03T10:27:02.214Z,11.7
2019-05-03T10:28:02.260Z,11.7
2019-05-03T10:29:05.176Z,11.8
2019-05-03T10:30:10.372Z,11.8
2019-05-03T10:31:05.389Z,11.9
2019-05-03T10:32:02.530Z,11.9
2019-05-03T10:33:02.573Z,11.8
2019-05-03T10:35:02.703Z,11.7
2019-05-03T10:36:02.725Z,11.6
2019-05-03T10:37:04.984Z,11.7
2019-05-03T10:38:02.856Z,11.7
2019-05-03T10:39:04.767Z,11.7
2019-05-03T10:40:18.823Z,11.7
2019-05-03T10:41:02.972Z,11.8
2019-05-03T10:42:04.752Z,11.7
2019-05-03T10:43:04.796Z,11.7
2019-05-03T10:44:03.178Z,11.8
2019-05-03T10:45:04.600Z,11.9
2019-05-03T10:46:05.107Z,11.9
2019-05-03T10:47:05.443Z,11.7
2019-05-03T10:48:04.735Z,11.6
2019-05-03T10:49:05.535Z,11.6
2019-05-03T10:50:04.660Z,11.3
2019-05-03T10:51:04.672Z,11.3
2019-05-03T10:52:05.602Z,11.1
2019-05-03T10:53:05.172Z,11.1
2019-05-03T10:54:05.189Z,11
2019-05-03T10:55:05.341Z,11
2019-05-03T10:56:05.066Z,10.9
2019-05-03T10:57:05.222Z,10.8
2019-05-03T10:58:05.294Z,10.8
2019-05-03T10:59:05.969Z,10.8
2019-05-03T11:00:05.034Z,10.8
2019-05-03T11:01:04.931Z,10.8
2019-05-03T11:02:04.222Z,10.8
2019-05-03T11:03:05.285Z,10.8
2019-05-03T11:04:05.278Z,10.7
2019-05-03T11:05:05.191Z,10.7
2019-05-03T11:06:05.471Z,10.8
2019-05-03T11:07:05.440Z,10.8
2019-05-03T11:08:04.974Z,10.8
2019-05-03T11:09:05.591Z,10.8
2019-05-03T11:10:05.255Z,10.8
2019-05-03T11:11:05.883Z,10.8
2019-05-03T11:12:05.307Z,10.8
2019-05-03T11:13:05.804Z,10.9
2019-05-03T11:14:05.383Z,10.9
2019-05-03T11:15:04.911Z,10.9
2019-05-03T11:16:05.570Z,10.8
2019-05-03T11:17:05.628Z,10.8
2019-05-03T11:18:05.555Z,10.8
2019-05-03T11:19:05.529Z,10.8
2019-05-03T11:20:05.342Z,10.9
2019-05-03T11:21:05.280Z,10.8
2019-05-03T11:22:05.608Z,10.8
2019-05-03T11:23:05.845Z,10.8
2019-05-03T11:24:05.342Z,10.8
2019-05-03T11:25:22.448Z,10.8
2019-05-03T11:26:05.465Z,10.7
2019-05-03T11:27:05.491Z,10.7
2019-05-03T11:28:05.595Z,10.7
2019-05-03T11:29:05.702Z,10.8
2019-05-03T11:30:05.612Z,11
2019-05-03T11:31:05.744Z,11.3
2019-05-03T11:32:08.963Z,11.6
2019-05-03T11:33:05.814Z,11.9
2019-05-03T11:34:05.851Z,11.9
2019-05-03T11:35:05.906Z,11.8
2019-05-03T11:36:05.952Z,11.8
2019-05-03T11:37:06.006Z,11.8
2019-05-03T11:38:06.121Z,11.9
2019-05-03T11:39:06.112Z,12.1
2019-05-03T11:40:06.180Z,12.4
2019-05-03T11:41:06.217Z,12.5
2019-05-03T11:42:06.297Z,12.8
2019-05-03T11:43:06.326Z,13
2019-05-03T11:44:06.412Z,13.1
2019-05-03T11:45:06.572Z,13.2
2019-05-03T11:46:06.513Z,13.3
2019-05-03T11:47:06.572Z,13.4
2019-05-03T11:48:06.606Z,13.5
2019-05-03T11:49:06.692Z,13.7
2019-05-03T11:50:06.727Z,13.8
2019-05-03T11:51:06.791Z,13.9
2019-05-03T11:52:06.858Z,14
2019-05-03T11:53:06.911Z,14.1
2019-05-03T11:54:06.991Z,14.2
2019-05-03T11:55:26.575Z,14.3
2019-05-03T11:56:07.051Z,14.4
2019-05-03T11:57:07.130Z,14.5
2019-05-03T11:58:07.206Z,14.6
2019-05-03T11:59:07.253Z,14.7
2019-05-03T12:00:07.301Z,14.8
2019-05-03T12:01:15.114Z,14.8
2019-05-03T12:02:07.378Z,14.8
2019-05-03T12:03:07.488Z,14.8
2019-05-03T12:04:07.538Z,14.9
2019-05-03T12:05:07.577Z,15
2019-05-03T12:06:07.610Z,15.1
2019-05-03T12:07:07.730Z,15.1
2019-05-03T12:08:07.768Z,15.2
2019-05-03T12:09:07.992Z,15.2
2019-05-03T12:10:15.980Z,15.3
2019-05-03T12:11:07.931Z,15.4
2019-05-03T12:12:08.105Z,15.4
2019-05-03T12:13:08.017Z,15.3
2019-05-03T12:14:08.061Z,15.5
2019-05-03T12:15:08.102Z,15.6
2019-05-03T12:16:16.903Z,15.6
2019-05-03T12:17:17.746Z,15.6
2019-05-03T12:18:08.696Z,15.7
2019-05-03T12:19:16.696Z,15.8
2019-05-03T12:20:09.674Z,15.9
2019-05-03T12:21:09.790Z,15.9
2019-05-03T12:22:09.185Z,15.9
2019-05-03T12:23:09.246Z,15.5
2019-05-03T12:24:09.156Z,15.1
2019-05-03T12:25:10.215Z,14.9
2019-05-03T12:26:12.871Z,14.8
2019-05-03T12:27:08.796Z,15
2019-05-03T12:28:08.892Z,15.2
2019-05-03T12:29:09.023Z,15.2
2019-05-03T12:31:23.815Z,15.1
2019-05-03T12:32:09.107Z,15.1
2019-05-03T12:33:09.209Z,15.1
2019-05-03T12:34:09.426Z,15.1
2019-05-03T12:35:09.246Z,15
2019-05-03T12:36:09.370Z,15.2
2019-05-03T12:37:09.363Z,15.2
2019-05-03T12:38:09.415Z,15.1
2019-05-03T12:39:23.087Z,15.1
2019-05-03T12:40:09.543Z,15
2019-05-03T12:41:09.628Z,15.1
2019-05-03T12:42:09.649Z,15.1
2019-05-03T12:43:09.740Z,15.1
2019-05-03T12:44:09.761Z,15.1
2019-05-03T12:45:09.834Z,15
2019-05-03T12:46:09.908Z,15.1
2019-05-03T12:47:09.955Z,15
2019-05-03T12:48:10.044Z,14.9
2019-05-03T12:49:10.081Z,14.8
2019-05-03T12:50:10.138Z,14.6
2019-05-03T12:51:10.488Z,14.5
2019-05-03T12:52:10.817Z,14.5
2019-05-03T12:53:10.313Z,14.5
2019-05-03T12:54:10.371Z,14.4
2019-05-03T12:55:10.450Z,14.3
2019-05-03T12:56:12.837Z,14
2019-05-03T12:57:10.572Z,13.9
2019-05-03T12:58:10.581Z,14.2
2019-05-03T12:59:10.671Z,14.2
2019-05-03T13:00:10.676Z,14.4
2019-05-03T13:01:10.750Z,14.4
2019-05-03T13:02:10.816Z,14.2
2019-05-03T13:03:10.889Z,13.9
2019-05-03T13:04:10.946Z,14
2019-05-03T13:05:11.009Z,14.1
2019-05-03T13:06:11.042Z,14.3
2019-05-03T13:07:11.077Z,14.5
2019-05-03T13:08:11.151Z,14.6
2019-05-03T13:09:11.301Z,14.6
2019-05-03T13:10:11.298Z,14.4
2019-05-03T13:11:11.662Z,14.4
2019-05-03T13:12:11.631Z,14.4
2019-05-03T13:13:11.507Z,14.5
2019-05-03T13:14:11.704Z,14.7
2019-05-03T13:15:11.573Z,14.8
2019-05-03T13:16:11.629Z,14.8
2019-05-03T13:17:11.786Z,14.8
2019-05-03T13:18:11.980Z,14.9
2019-05-03T13:19:11.799Z,15.1
2019-05-03T13:20:11.848Z,15
2019-05-03T13:21:16.912Z,14.7
2019-05-03T13:22:11.991Z,14.5
2019-05-03T13:23:12.989Z,14.5
2019-05-03T13:25:12.123Z,14.7
2019-05-03T13:26:14.175Z,14.8
2019-05-03T13:27:12.211Z,14.9
2019-05-03T13:28:12.292Z,15
2019-05-03T13:29:12.392Z,14.8
2019-05-03T13:30:12.418Z,14.7
2019-05-03T13:31:12.486Z,14.6
2019-05-03T13:32:12.488Z,14.6
2019-05-03T13:33:12.563Z,14.6
2019-05-03T13:34:12.667Z,14.8
2019-05-03T13:35:14.882Z,14.7
2019-05-03T13:36:12.734Z,14.8
2019-05-03T13:37:14.866Z,14.8
2019-05-03T13:38:12.829Z,14.8
2019-05-03T13:39:14.512Z,14.8
2019-05-03T13:40:13.085Z,14.8
2019-05-03T13:41:13.093Z,14.9